createdAt,value
2019-04-04T00:03:52.947Z,95.30
2019-04-04T00:06:34.733Z,95.30
2019-04-04T00:09:16.903Z,95.30
2019-04-04T00:11:58.987Z,95.40
2019-04-04T00:14:43.513Z,95.60
2019-04-04T00:17:25.304Z,95.50
2019-04-04T00:20:07.851Z,95.40
2019-04-04T00:22:49.932Z,95.60
2019-04-04T00:25:31.739Z,95.70
2019-04-04T00:28:14.965Z,95.60
2019-04-04T00:30:57.979Z,95.70
2019-04-04T00:33:39.922Z,95.30
2019-04-04T00:36:21.695Z,95.40
2019-04-04T00:39:05.448Z,95.60
2019-04-04T00:41:47.873Z,95.60
2019-04-04T00:44:29.757Z,95.70
2019-04-04T00:47:11.674Z,95.50
2019-04-04T00:49:54.051Z,95.60
2019-04-04T00:52:36.413Z,95.50
2019-04-04T00:55:18.493Z,95.50
2019-04-04T00:58:00.413Z,95.60
2019-04-04T01:00:42.887Z,95.80
2019-04-04T01:03:25.632Z,95.60
2019-04-04T01:06:07.788Z,95.90
2019-04-04T01:08:49.601Z,95.80
2019-04-04T01:11:31.818Z,95.80
2019-04-04T01:14:14.350Z,95.80
2019-04-04T01:16:56.746Z,96.00
2019-04-04T01:19:39.009Z,96.00
2019-04-04T01:22:21.052Z,96.10
2019-04-04T01:25:02.895Z,96.40
2019-04-04T01:27:44.655Z,96.10
2019-04-04T01:30:27.127Z,96.00
2019-04-04T01:33:09.255Z,96.10
2019-04-04T01:35:53.676Z,96.30
2019-04-04T01:38:35.349Z,96.50
2019-04-04T01:41:20.519Z,96.40
2019-04-04T01:44:05.181Z,96.30
2019-04-04T01:46:47.090Z,96.30
2019-04-04T01:49:29.495Z,96.20
2019-04-04T01:52:11.299Z,96.30
2019-04-04T01:54:53.944Z,96.40
2019-04-04T01:57:38.586Z,96.70
2019-04-04T02:00:19.579Z,96.60
2019-04-04T02:03:02.173Z,96.70
2019-04-04T02:05:43.929Z,96.50
2019-04-04T02:08:26.392Z,96.90
2019-04-04T02:11:08.651Z,96.90
2019-04-04T02:13:50.791Z,96.90
2019-04-04T02:16:33.016Z,97.10
2019-04-04T02:19:14.831Z,96.70
2019-04-04T02:21:57.880Z,96.70
2019-04-04T02:24:40.642Z,96.80
2019-04-04T02:27:22.568Z,96.80
2019-04-04T02:30:05.055Z,96.60
2019-04-04T02:32:46.827Z,96.60
2019-04-04T02:35:28.972Z,96.50
2019-04-04T02:38:11.455Z,96.90
2019-04-04T02:40:53.444Z,96.80
2019-04-04T02:43:35.359Z,96.80
2019-04-04T02:46:17.034Z,96.90
2019-04-04T02:48:59.144Z,97.00
2019-04-04T02:51:41.551Z,96.90
2019-04-04T02:54:25.548Z,96.80
2019-04-04T02:57:09.180Z,96.80
2019-04-04T02:59:53.428Z,96.60
2019-04-04T03:02:36.942Z,96.80
2019-04-04T03:05:20.043Z,96.90
2019-04-04T03:08:04.119Z,97.00
2019-04-04T03:10:49.232Z,97.00
2019-04-04T03:13:32.143Z,97.20
2019-04-04T03:16:14.384Z,96.80
2019-04-04T03:18:56.668Z,96.70
2019-04-04T03:21:38.667Z,97.00
2019-04-04T03:24:20.643Z,96.80
2019-04-04T03:27:02.704Z,96.90
2019-04-04T03:29:44.566Z,96.90
2019-04-04T03:32:26.324Z,96.90
2019-04-04T03:35:08.424Z,97.00
2019-04-04T03:37:50.520Z,96.80
2019-04-04T03:40:32.802Z,97.30
2019-04-04T03:43:16.215Z,97.10
2019-04-04T03:46:01.287Z,97.10
2019-04-04T03:48:44.138Z,97.10
2019-04-04T03:51:26.326Z,97.00
2019-04-04T03:57:23.778Z,97.10
2019-04-04T04:00:07.561Z,98.00
2019-04-04T04:02:50.329Z,97.10
2019-04-04T04:05:35.697Z,97.20
2019-04-04T04:08:21.018Z,96.90
2019-04-04T04:11:04.767Z,96.90
2019-04-04T04:13:48.884Z,97.00
2019-04-04T04:16:29.231Z,97.30
2019-04-04T04:19:11.382Z,97.40
2019-04-04T04:21:53.210Z,98.20
2019-04-04T04:24:34.956Z,97.30
2019-04-04T04:27:16.894Z,97.40
2019-04-04T04:30:02.069Z,97.30
2019-04-04T04:32:42.547Z,97.60
2019-04-04T04:35:24.563Z,97.40
2019-04-04T04:38:06.512Z,97.50
2019-04-04T04:40:48.544Z,97.20
2019-04-04T04:43:33.593Z,98.50
2019-04-04T04:46:16.691Z,97.30
2019-04-04T04:48:58.006Z,97.50
2019-04-04T04:51:43.219Z,97.40
2019-04-04T04:54:24.684Z,97.00
2019-04-04T04:57:06.614Z,97.00
2019-04-04T04:59:48.621Z,97.00
2019-04-04T05:02:30.887Z,97.80
2019-04-04T05:05:13.279Z,97.40
2019-04-04T05:07:55.615Z,97.50
2019-04-04T05:10:37.623Z,98.50
2019-04-04T05:13:19.558Z,97.50
2019-04-04T05:16:02.054Z,98.00
2019-04-04T05:18:48.183Z,97.40
2019-04-04T05:21:30.100Z,97.20
2019-04-04T05:24:12.370Z,97.40
2019-04-04T05:26:54.520Z,97.60
2019-04-04T05:29:36.979Z,97.40
2019-04-04T05:32:21.758Z,98.00
2019-04-04T05:35:03.364Z,97.80
2019-04-04T05:37:45.355Z,97.90
2019-04-04T05:40:30.510Z,98.50
2019-04-04T05:43:10.959Z,98.10
2019-04-04T05:45:52.818Z,99.00
2019-04-04T05:48:35.080Z,97.90
2019-04-04T05:51:17.211Z,97.80
2019-04-04T05:53:59.590Z,97.80
2019-04-04T05:56:44.392Z,97.40
2019-04-04T05:59:25.826Z,98.00
2019-04-04T06:02:10.999Z,97.80
2019-04-04T06:04:55.119Z,98.70
2019-04-04T06:07:36.441Z,97.90
2019-04-04T06:10:19.195Z,97.80
2019-04-04T06:13:01.685Z,97.90
2019-04-04T06:15:43.571Z,97.40
2019-04-04T06:18:25.550Z,97.40
2019-04-04T06:21:07.578Z,97.60
2019-04-04T06:23:49.743Z,97.80
2019-04-04T06:26:31.977Z,98.80
2019-04-04T06:29:15.150Z,98.30
2019-04-04T06:31:59.902Z,98.20
2019-04-04T06:34:42.166Z,98.30
2019-04-04T06:37:25.848Z,98.50
2019-04-04T06:40:08.101Z,97.80
2019-04-04T06:42:49.794Z,97.50
2019-04-04T06:45:31.952Z,97.50
2019-04-04T06:48:13.610Z,97.90
2019-04-04T06:50:55.750Z,97.20
2019-04-04T06:53:37.803Z,97.90
2019-04-04T06:56:20.006Z,97.40
2019-04-04T06:59:02.696Z,97.60
2019-04-04T07:01:45.228Z,97.40
2019-04-04T07:04:29.187Z,97.90
2019-04-04T07:07:12.560Z,98.00
2019-04-04T07:09:54.687Z,98.10
2019-04-04T07:12:38.015Z,98.40
2019-04-04T07:15:20.028Z,98.50
2019-04-04T07:18:02.544Z,98.00
2019-04-04T07:20:47.899Z,97.40
2019-04-04T07:23:29.181Z,97.70
2019-04-04T07:26:14.566Z,97.80
2019-04-04T07:28:54.960Z,97.50
2019-04-04T07:31:38.308Z,97.70
2019-04-04T07:34:20.792Z,97.40
2019-04-04T07:37:02.919Z,97.70
2019-04-04T07:39:44.731Z,97.50
2019-04-04T07:42:26.802Z,98.00
2019-04-04T07:45:08.847Z,97.70
2019-04-04T07:47:50.566Z,97.70
2019-04-04T07:50:32.462Z,97.50
2019-04-04T07:53:14.405Z,97.80
2019-04-04T07:55:56.434Z,97.70
2019-04-04T07:58:38.177Z,97.20
2019-04-04T08:01:20.600Z,97.70
2019-04-04T08:04:02.548Z,97.60
2019-04-04T08:06:44.531Z,97.40
2019-04-04T08:09:26.493Z,97.40
2019-04-04T08:12:08.528Z,97.40
2019-04-04T08:14:50.495Z,97.00
2019-04-04T08:17:32.741Z,96.80
2019-04-04T08:20:14.825Z,97.00
2019-04-04T08:22:56.894Z,96.60
2019-04-04T08:25:38.687Z,96.60
2019-04-04T08:28:21.075Z,96.80
2019-04-04T08:31:03.550Z,97.00
2019-04-04T08:33:45.860Z,97.10
2019-04-04T08:36:28.319Z,96.90
2019-04-04T08:39:12.435Z,97.20
2019-04-04T08:41:54.948Z,96.90
2019-04-04T08:44:37.393Z,97.20
2019-04-04T08:47:19.262Z,97.40
2019-04-04T08:50:01.519Z,97.30
2019-04-04T08:52:43.827Z,97.10
2019-04-04T08:55:26.127Z,97.10
2019-04-04T08:58:08.080Z,97.20
2019-04-04T09:00:50.142Z,97.00
2019-04-04T09:03:32.144Z,97.40
2019-04-04T09:06:14.600Z,97.50
2019-04-04T09:08:56.694Z,97.40
2019-04-04T09:11:38.734Z,97.70
2019-04-04T09:14:20.855Z,97.50
2019-04-04T09:17:02.982Z,97.30
2019-04-04T09:19:45.056Z,97.60
2019-04-04T09:22:26.903Z,97.50
2019-04-04T09:25:10.602Z,97.40
2019-04-04T09:27:52.763Z,97.40
2019-04-04T09:30:34.807Z,97.50
2019-04-04T09:33:17.463Z,97.30
2019-04-04T09:35:59.638Z,97.10
2019-04-04T09:38:41.569Z,96.80
2019-04-04T09:41:23.716Z,96.80
2019-04-04T09:44:06.353Z,97.00
2019-04-04T09:46:48.733Z,97.20
2019-04-04T09:49:30.732Z,97.10
2019-04-04T09:52:12.475Z,97.10
2019-04-04T09:54:54.690Z,97.40
2019-04-04T09:57:36.929Z,97.40
2019-04-04T10:00:19.801Z,97.30
2019-04-04T10:03:02.342Z,97.30
2019-04-04T10:05:44.447Z,97.20
2019-04-04T10:08:26.957Z,97.60
2019-04-04T10:11:09.154Z,97.30
2019-04-04T10:13:50.922Z,96.50
2019-04-04T10:16:33.027Z,96.50
2019-04-04T10:19:14.904Z,96.60
2019-04-04T10:21:56.939Z,96.80
2019-04-04T10:24:39.019Z,96.60
2019-04-04T10:27:21.142Z,96.60
2019-04-04T10:30:03.366Z,96.60
2019-04-04T10:32:45.058Z,96.50
2019-04-04T10:35:27.125Z,96.30
2019-04-04T10:38:09.195Z,96.30
2019-04-04T10:40:51.621Z,96.30
2019-04-04T10:43:33.575Z,96.30
2019-04-04T10:46:15.744Z,96.70
2019-04-04T10:48:57.672Z,96.20
2019-04-04T10:51:39.678Z,96.50
2019-04-04T10:54:21.809Z,95.50
2019-04-04T10:57:04.312Z,95.60
2019-04-04T10:59:47.445Z,95.60
2019-04-04T11:02:29.776Z,95.80
2019-04-04T11:05:12.321Z,95.60
2019-04-04T11:07:56.805Z,95.50
2019-04-04T11:10:38.770Z,95.50
2019-04-04T11:13:32.452Z,95.60
2019-04-04T11:16:04.485Z,95.70
2019-04-04T11:18:46.534Z,95.50
2019-04-04T11:21:28.778Z,95.70
2019-04-04T11:24:10.834Z,95.60
2019-04-04T11:26:53.248Z,95.70
2019-04-04T11:29:35.328Z,95.60
2019-04-04T11:32:17.367Z,96.10
2019-04-04T11:34:59.775Z,96.00
2019-04-04T11:37:41.714Z,95.70
2019-04-04T11:40:23.953Z,95.80
2019-04-04T11:43:06.023Z,95.20
2019-04-04T11:45:48.089Z,95.20
2019-04-04T11:48:30.167Z,95.40
2019-04-04T11:51:12.179Z,95.30
2019-04-04T11:53:54.556Z,95.20
2019-04-04T11:56:37.159Z,95.20
2019-04-04T11:59:18.967Z,95.10
2019-04-04T12:02:01.049Z,94.80
2019-04-04T12:04:43.176Z,94.80
2019-04-04T12:07:25.647Z,95.20
2019-04-04T12:10:08.151Z,95.00
2019-04-04T12:12:50.787Z,94.90
2019-04-04T12:15:33.651Z,95.00
2019-04-04T12:18:15.460Z,95.10
2019-04-04T12:20:58.128Z,94.90
2019-04-04T12:23:39.896Z,94.40
2019-04-04T12:26:22.242Z,94.50
2019-04-04T12:29:04.407Z,94.80
2019-04-04T12:31:46.711Z,94.90
2019-04-04T12:34:28.906Z,95.20
2019-04-04T12:37:10.757Z,94.90
2019-04-04T12:39:52.885Z,95.00
2019-04-04T12:42:34.720Z,95.00
2019-04-04T12:45:16.914Z,95.20
2019-04-04T12:47:59.143Z,95.50
2019-04-04T12:50:41.335Z,95.50
2019-04-04T12:53:23.851Z,95.70
2019-04-04T12:56:06.479Z,95.40
2019-04-04T12:58:48.471Z,95.60
2019-04-04T13:01:30.422Z,95.70
2019-04-04T13:04:12.781Z,95.30
2019-04-04T13:06:55.217Z,95.20
2019-04-04T13:09:37.796Z,95.20
2019-04-04T13:12:19.972Z,95.40
2019-04-04T13:15:02.110Z,95.00
2019-04-04T13:17:44.449Z,95.20
2019-04-04T13:20:26.145Z,95.40
2019-04-04T13:23:07.895Z,96.20
2019-04-04T13:25:49.744Z,96.00
2019-04-04T13:28:32.317Z,95.80
2019-04-04T13:31:14.707Z,95.40
2019-04-04T13:33:56.823Z,95.80
2019-04-04T13:36:38.852Z,95.50
2019-04-04T13:39:21.096Z,95.10
2019-04-04T13:42:02.956Z,95.20
2019-04-04T13:44:45.136Z,95.30
2019-04-04T13:47:28.629Z,95.50
2019-04-04T13:50:12.426Z,95.30
2019-04-04T13:52:54.627Z,95.50
2019-04-04T13:55:39.194Z,95.40
2019-04-04T13:58:22.285Z,95.40
2019-04-04T14:01:05.104Z,95.50
2019-04-04T14:03:47.086Z,95.20
2019-04-04T14:06:29.218Z,94.90
2019-04-04T14:09:12.508Z,94.60
2019-04-04T14:11:55.368Z,94.70
2019-04-04T14:14:37.170Z,94.70
2019-04-04T14:17:19.117Z,94.70
2019-04-04T14:20:01.270Z,94.90
2019-04-04T14:22:43.241Z,95.00
2019-04-04T14:25:25.532Z,95.00
2019-04-04T14:28:06.288Z,95.20
2019-04-04T14:53:38.952Z,94.60
2019-04-04T14:56:47.966Z,94.70
2019-04-04T15:09:17.784Z,94.40
2019-04-04T15:12:07.374Z,94.20
2019-04-04T15:18:31.251Z,94.40
2019-04-04T15:21:40.295Z,94.20
2019-04-04T15:27:56.646Z,94.40
2019-04-04T15:30:39.240Z,94.50
2019-04-04T15:33:21.136Z,94.70
2019-04-04T15:36:03.145Z,94.60
2019-04-04T15:38:45.193Z,94.60
2019-04-04T15:41:36.797Z,94.90
2019-04-04T15:44:11.279Z,95.20
2019-04-04T15:46:53.106Z,95.20
2019-04-04T15:49:35.156Z,94.80
2019-04-04T15:52:17.756Z,94.60
2019-04-04T15:54:59.626Z,94.50
2019-04-04T15:57:44.257Z,94.70
2019-04-04T16:00:26.456Z,94.50
2019-04-04T16:03:08.592Z,94.60
2019-04-04T16:05:51.451Z,94.80
2019-04-04T16:08:34.236Z,95.20
2019-04-04T16:11:16.399Z,95.30
2019-04-04T16:13:58.585Z,95.20
2019-04-04T16:16:40.835Z,94.90
2019-04-04T16:19:23.002Z,94.80
2019-04-04T16:22:05.248Z,95.00
2019-04-04T16:24:47.716Z,95.00
2019-04-04T16:27:30.231Z,95.10
2019-04-04T16:30:12.554Z,95.20
2019-04-04T16:32:54.514Z,95.00
2019-04-04T16:35:36.603Z,95.20
2019-04-04T16:38:18.630Z,95.40
2019-04-04T16:41:00.638Z,94.80
2019-04-04T16:43:43.187Z,94.70
2019-04-04T16:46:25.950Z,94.80
2019-04-04T16:49:08.007Z,94.80
2019-04-04T16:51:49.803Z,94.70
2019-04-04T16:54:31.719Z,94.80
2019-04-04T16:57:14.082Z,95.10
2019-04-04T16:59:56.250Z,95.40
2019-04-04T17:02:38.633Z,95.70
2019-04-04T17:05:20.935Z,95.90
2019-04-04T17:08:03.015Z,95.80
2019-04-04T17:10:44.970Z,95.90
2019-04-04T17:13:27.450Z,95.90
2019-04-04T17:16:09.913Z,95.70
2019-04-04T17:18:52.516Z,95.70
2019-04-04T17:21:34.584Z,95.60
2019-04-04T17:24:16.639Z,95.80
2019-04-04T17:26:59.637Z,95.70
2019-04-04T17:29:41.942Z,95.40
2019-04-04T17:32:23.711Z,95.30
2019-04-04T17:35:06.360Z,95.10
2019-04-04T17:37:49.067Z,95.40
2019-04-04T17:40:31.525Z,95.40
2019-04-04T17:43:13.949Z,95.50
2019-04-04T17:45:56.456Z,95.30
2019-04-04T17:48:39.039Z,95.30
2019-04-04T17:51:20.807Z,95.40
2019-04-04T17:54:02.967Z,95.30
2019-04-04T17:56:48.372Z,95.40
2019-04-04T17:59:30.439Z,95.40
2019-04-04T18:02:13.236Z,95.40
2019-04-04T18:04:55.874Z,95.30
2019-04-04T18:07:38.427Z,95.40
2019-04-04T18:10:20.359Z,95.40
2019-04-04T18:13:02.496Z,95.40
2019-04-04T18:15:44.953Z,95.30
2019-04-04T18:18:27.214Z,95.30
2019-04-04T18:21:09.101Z,95.60
2019-04-04T18:23:51.418Z,96.00
2019-04-04T18:26:33.781Z,96.50
2019-04-04T18:29:16.295Z,96.20
2019-04-04T18:31:58.228Z,96.70
2019-04-04T18:34:40.010Z,96.80
2019-04-04T18:37:22.984Z,96.90
2019-04-04T18:40:06.358Z,97.00
2019-04-04T18:42:53.514Z,96.90
2019-04-04T18:45:32.245Z,97.30
2019-04-04T18:48:14.908Z,97.40
2019-04-04T18:50:57.653Z,97.40
2019-04-04T18:53:39.777Z,97.70
2019-04-04T18:56:21.628Z,98.00
2019-04-04T18:59:03.935Z,98.00
2019-04-04T19:01:46.626Z,97.90
2019-04-04T19:04:28.749Z,97.90
2019-04-04T19:07:10.411Z,97.90
2019-04-04T19:09:52.298Z,97.70
2019-04-04T19:12:34.297Z,97.50
2019-04-04T19:15:16.341Z,97.50
2019-04-04T19:17:58.884Z,97.40
2019-04-04T19:20:41.440Z,97.50
2019-04-04T19:23:23.692Z,97.50
2019-04-04T19:26:05.840Z,97.70
2019-04-04T19:28:47.910Z,97.90
2019-04-04T19:31:29.917Z,97.90
2019-04-04T19:34:12.300Z,97.90
2019-04-04T19:36:54.463Z,97.90
2019-04-04T19:39:36.875Z,98.00
2019-04-04T19:42:19.364Z,98.00
2019-04-04T19:45:01.289Z,98.00
2019-04-04T19:47:43.654Z,98.00
2019-04-04T19:50:25.990Z,97.70
2019-04-04T19:53:07.861Z,97.90
2019-04-04T19:55:49.578Z,98.00
2019-04-04T19:58:31.497Z,98.10
2019-04-04T20:01:13.355Z,98.20
2019-04-04T20:03:55.999Z,98.20
2019-04-04T20:06:38.486Z,98.20
2019-04-04T20:09:20.366Z,98.30
2019-04-04T20:12:02.213Z,98.40
2019-04-04T20:14:44.172Z,98.30
2019-04-04T20:17:27.024Z,98.20
2019-04-04T20:20:09.150Z,98.20
2019-04-04T20:22:52.035Z,98.20
2019-04-04T20:25:34.375Z,98.10
2019-04-04T20:28:16.510Z,98.00
2019-04-04T20:30:58.259Z,98.10
2019-04-04T20:33:40.215Z,98.10
2019-04-04T20:36:22.149Z,98.10
2019-04-04T20:39:05.404Z,97.90
2019-04-04T20:41:47.155Z,97.90
2019-04-04T20:44:29.304Z,97.80
2019-04-04T20:47:11.904Z,97.90
2019-04-04T20:49:54.560Z,97.90
2019-04-04T20:52:36.942Z,97.90
2019-04-04T20:55:19.075Z,97.70
2019-04-04T20:58:01.594Z,97.70
2019-04-04T21:00:43.659Z,97.70
2019-04-04T21:03:24.630Z,97.90
2019-04-04T21:12:36.713Z,97.90
2019-04-04T21:15:45.685Z,97.70
2019-04-04T21:22:08.745Z,97.50
2019-04-04T21:28:31.911Z,97.20
2019-04-04T21:31:33.729Z,97.00
2019-04-04T21:34:17.241Z,97.20
2019-04-04T21:36:59.636Z,97.10
2019-04-04T21:39:41.992Z,97.10
2019-04-04T21:42:23.682Z,97.00
2019-04-04T21:45:05.830Z,97.00
2019-04-04T21:47:47.779Z,97.00
2019-04-04T21:50:29.962Z,96.80
2019-04-04T21:53:11.913Z,96.90
2019-04-04T21:55:54.016Z,96.90
2019-04-04T21:58:36.462Z,96.80
2019-04-04T22:01:18.996Z,96.90
2019-04-04T22:04:00.939Z,96.80
2019-04-04T22:06:43.010Z,96.90
2019-04-04T22:09:24.848Z,96.90
2019-04-04T22:12:07.391Z,96.80
2019-04-04T22:14:49.590Z,96.70
2019-04-04T22:17:31.785Z,96.70
2019-04-04T22:20:13.879Z,96.80
2019-04-04T22:22:55.750Z,97.00
2019-04-04T22:25:37.825Z,97.30
2019-04-04T22:28:20.346Z,97.50
2019-04-04T22:31:02.639Z,97.60
2019-04-04T22:33:44.668Z,97.70
2019-04-04T22:36:26.704Z,98.00
2019-04-04T22:39:08.634Z,97.70
2019-04-04T22:41:50.411Z,97.80
2019-04-04T22:44:35.069Z,97.70
2019-04-04T22:47:17.262Z,97.80
2019-04-04T22:49:59.924Z,97.70
2019-04-04T22:52:42.886Z,97.70
2019-04-04T22:55:26.719Z,97.70
2019-04-04T22:58:08.481Z,97.70
2019-04-04T23:00:50.603Z,97.70
2019-04-04T23:03:32.477Z,97.60
2019-04-04T23:06:14.834Z,97.70
2019-04-04T23:08:56.876Z,97.70
2019-04-04T23:11:38.823Z,97.70
2019-04-04T23:14:21.147Z,97.70
2019-04-04T23:17:02.926Z,97.70
2019-04-04T23:19:44.953Z,97.70
2019-04-04T23:22:26.806Z,97.60
2019-04-04T23:25:09.416Z,97.60
2019-04-04T23:27:51.792Z,97.60
2019-04-04T23:30:34.107Z,97.70
2019-04-04T23:33:16.515Z,97.60
2019-04-04T23:35:58.440Z,97.60
2019-04-04T23:38:40.519Z,97.70
2019-04-04T23:41:22.281Z,97.80
2019-04-04T23:44:04.514Z,97.80
2019-04-04T23:46:46.982Z,97.80
2019-04-04T23:49:29.471Z,97.80
2019-04-04T23:52:12.350Z,97.80
2019-04-04T23:54:54.960Z,97.80
2019-04-04T23:57:36.843Z,97.70
